Terminal Aerodrome Forecast
Issued by NWS

Home | Current Version | Previous Version | Text Only | Print | Product List | Glossary On
Versions: 1 2 3 4 5 6 7 8 9 10 11 12 13 14 15 16 17
000
FTUS43 KDLH 072300
TAFBRD
TAF
KBRD 072336Z 0800/0824 29010KT P6SM VCSH SCT060
      TEMPO 0800/0804 -TSRA BKN060CB BKN100
     FM081700 31012G22KT P6SM SCT050=

USA.gov is the U.S. government's official web portal to all federal, state and local government web resources and services.